createdAt,value
2018-07-21T00:02:08.850Z,65.61
2018-07-21T00:04:37.250Z,64.82
2018-07-21T00:07:05.657Z,65.19
2018-07-21T00:09:34.065Z,65.81
2018-07-21T00:12:02.487Z,66.10
2018-07-21T00:14:30.888Z,65.35
2018-07-21T00:16:59.289Z,66.04
2018-07-21T00:19:27.696Z,66.08
2018-07-21T00:21:56.071Z,66.34
2018-07-21T00:24:24.447Z,66.13
2018-07-21T00:26:52.842Z,66.37
2018-07-21T00:29:21.214Z,66.61
2018-07-21T00:31:49.618Z,66.27
2018-07-21T00:34:17.998Z,66.50
2018-07-21T00:36:46.399Z,66.89
2018-07-21T00:39:15.662Z,66.37
2018-07-21T00:41:44.474Z,67.12
2018-07-21T00:44:12.893Z,66.40
2018-07-21T00:46:41.301Z,66.34
2018-07-21T00:49:09.683Z,66.35
2018-07-21T00:51:38.086Z,67.01
2018-07-21T00:54:06.463Z,66.57
2018-07-21T00:56:34.862Z,66.55
2018-07-21T00:59:03.238Z,66.57
2018-07-21T01:01:31.671Z,66.99
2018-07-21T01:04:00.047Z,67.80
2018-07-21T01:06:28.433Z,67.82
2018-07-21T01:08:56.811Z,67.06
2018-07-21T01:11:25.206Z,67.24
2018-07-21T01:13:53.610Z,67.92
2018-07-21T01:16:22.027Z,67.77
2018-07-21T01:18:50.405Z,68.38
2018-07-21T01:21:18.809Z,68.14
2018-07-21T01:23:47.195Z,68.05
2018-07-21T01:26:15.609Z,68.31
2018-07-21T01:28:43.987Z,68.84
2018-07-21T01:31:12.377Z,68.37
2018-07-21T01:33:40.745Z,69.02
2018-07-21T01:36:09.146Z,68.30
2018-07-21T01:38:37.550Z,68.92
2018-07-21T01:41:05.982Z,68.25
2018-07-21T01:43:34.362Z,68.61
2018-07-21T01:46:06.742Z,69.30
2018-07-21T01:48:35.121Z,69.24
2018-07-21T01:51:03.517Z,70.01
2018-07-21T01:53:31.910Z,69.72
2018-07-21T01:56:00.302Z,70.22
2018-07-21T01:58:28.674Z,69.80
2018-07-21T02:00:57.118Z,70.10
2018-07-21T02:03:25.496Z,70.27
2018-07-21T02:05:53.894Z,70.90
2018-07-21T02:08:22.258Z,70.55
2018-07-21T02:10:50.654Z,71.02
2018-07-21T02:13:19.022Z,71.26
2018-07-21T02:15:47.417Z,71.40
2018-07-21T02:18:15.814Z,72.37
2018-07-21T02:20:44.213Z,72.82
2018-07-21T02:23:12.583Z,73.06
2018-07-21T02:25:40.963Z,73.14
2018-07-21T02:28:09.407Z,72.89
2018-07-21T02:30:37.789Z,72.86
2018-07-21T02:33:06.390Z,72.87
2018-07-21T02:35:34.771Z,73.00
2018-07-21T02:38:03.182Z,72.72
2018-07-21T02:40:31.562Z,72.31
2018-07-21T02:42:59.962Z,72.08
2018-07-21T02:45:28.421Z,72.88
2018-07-21T02:47:56.763Z,72.25
2018-07-21T02:50:25.143Z,73.46
2018-07-21T02:52:53.554Z,72.77
2018-07-21T02:55:21.939Z,73.43
2018-07-21T02:57:50.339Z,72.62
2018-07-21T03:00:18.718Z,73.69
2018-07-21T03:02:47.125Z,73.67
2018-07-21T03:05:15.508Z,72.99
2018-07-21T03:07:43.907Z,73.16
2018-07-21T03:10:12.421Z,73.79
2018-07-21T03:12:40.860Z,73.50
2018-07-21T03:15:09.443Z,73.73
2018-07-21T03:17:37.866Z,73.70
2018-07-21T03:20:06.246Z,74.26
2018-07-21T03:22:34.646Z,73.39
2018-07-21T03:25:03.023Z,73.16
2018-07-21T03:27:31.422Z,73.33
2018-07-21T03:29:59.794Z,73.49
2018-07-21T03:32:29.935Z,72.45
2018-07-21T03:34:58.311Z,73.05
2018-07-21T03:37:26.706Z,72.66
2018-07-21T03:39:55.086Z,72.40
2018-07-21T03:42:23.478Z,73.03
2018-07-21T03:44:51.886Z,72.36
2018-07-21T03:47:20.293Z,72.33
2018-07-21T03:49:48.674Z,72.58
2018-07-21T03:52:17.082Z,72.50
2018-07-21T03:54:45.433Z,71.62
2018-07-21T03:57:13.825Z,71.74
2018-07-21T03:59:42.190Z,72.13
2018-07-21T04:02:10.681Z,71.88
2018-07-21T04:04:39.059Z,71.23
2018-07-21T04:07:07.521Z,71.41
2018-07-21T04:09:35.887Z,71.55
2018-07-21T04:12:04.282Z,70.87
2018-07-21T04:14:32.658Z,70.76
2018-07-21T04:17:01.074Z,71.02
2018-07-21T04:19:29.441Z,70.72
2018-07-21T04:21:57.842Z,69.98
2018-07-21T04:24:26.217Z,68.80
2018-07-21T04:26:54.622Z,68.32
2018-07-21T04:29:23.018Z,68.77
2018-07-21T04:31:51.510Z,68.61
2018-07-21T04:34:19.906Z,67.69
2018-07-21T04:36:48.274Z,67.38
2018-07-21T04:39:16.665Z,66.87
2018-07-21T04:41:45.043Z,66.43
2018-07-21T04:44:13.430Z,66.42
2018-07-21T04:46:41.802Z,65.00
2018-07-21T04:49:10.199Z,64.97
2018-07-21T04:51:38.562Z,64.90
2018-07-21T04:54:06.959Z,64.39
2018-07-21T04:56:35.334Z,64.73
2018-07-21T04:59:03.739Z,64.00
2018-07-21T05:01:32.110Z,63.68
2018-07-21T05:04:00.524Z,63.33
2018-07-21T05:06:28.913Z,62.56
2018-07-21T05:08:57.306Z,63.53
2018-07-21T05:11:25.669Z,63.79
2018-07-21T05:13:54.051Z,63.23
2018-07-21T05:16:22.441Z,63.28
2018-07-21T05:18:50.830Z,64.31
2018-07-21T05:21:19.238Z,64.40
2018-07-21T05:23:47.636Z,63.84
2018-07-21T05:26:16.002Z,63.70
2018-07-21T05:28:44.397Z,62.76
2018-07-21T05:31:12.778Z,62.11
2018-07-21T05:33:41.170Z,62.51
2018-07-21T05:36:09.543Z,61.76
2018-07-21T05:38:37.934Z,61.42
2018-07-21T05:41:06.297Z,61.42
2018-07-21T05:43:34.694Z,60.27
2018-07-21T05:46:03.079Z,61.03
2018-07-21T05:48:31.473Z,60.65
2018-07-21T05:50:59.842Z,59.71
2018-07-21T05:53:28.249Z,60.30
2018-07-21T05:55:56.617Z,59.71
2018-07-21T05:58:25.014Z,60.67
2018-07-21T06:00:53.381Z,60.62
2018-07-21T06:03:21.786Z,60.94
2018-07-21T06:05:50.313Z,60.43
2018-07-21T06:08:18.714Z,59.84
2018-07-21T06:10:47.118Z,59.46
2018-07-21T06:13:15.526Z,59.92
2018-07-21T06:15:43.902Z,59.57
2018-07-21T06:18:12.318Z,59.26
2018-07-21T06:20:40.802Z,59.11
2018-07-21T06:23:09.214Z,59.15
2018-07-21T06:25:37.658Z,57.89
2018-07-21T06:28:06.095Z,57.74
2018-07-21T06:30:34.481Z,57.35
2018-07-21T06:33:02.845Z,57.98
2018-07-21T06:35:31.240Z,57.64
2018-07-21T06:37:59.629Z,58.13
2018-07-21T06:40:28.019Z,57.80
2018-07-21T06:42:56.389Z,57.84
2018-07-21T06:45:24.779Z,57.23
2018-07-21T06:47:53.149Z,57.28
2018-07-21T06:50:21.553Z,57.43
2018-07-21T06:52:49.925Z,58.06
2018-07-21T06:55:18.321Z,57.01
2018-07-21T06:57:46.690Z,57.98
2018-07-21T07:00:15.105Z,57.04
2018-07-21T07:02:43.485Z,56.76
2018-07-21T07:05:11.878Z,57.09
2018-07-21T07:07:40.237Z,57.37
2018-07-21T07:10:08.732Z,56.54
2018-07-21T07:12:37.106Z,55.45
2018-07-21T07:15:05.562Z,54.95
2018-07-21T07:17:34.020Z,54.72
2018-07-21T07:20:02.410Z,54.62
2018-07-21T07:22:30.791Z,53.72
2018-07-21T07:24:59.173Z,53.29
2018-07-21T07:27:27.566Z,52.02
2018-07-21T07:29:55.971Z,51.88
2018-07-21T07:32:24.341Z,52.74
2018-07-21T07:34:52.726Z,51.68
2018-07-21T07:37:21.094Z,51.58
2018-07-21T07:39:49.481Z,51.44
2018-07-21T07:42:17.910Z,51.55
2018-07-21T07:44:47.174Z,52.14
2018-07-21T07:47:15.564Z,51.11
2018-07-21T07:49:43.961Z,49.78
2018-07-21T07:52:12.338Z,49.33
2018-07-21T07:54:40.737Z,49.41
2018-07-21T07:57:09.635Z,48.48
2018-07-21T07:59:38.021Z,47.35
2018-07-21T08:02:06.407Z,47.88
2018-07-21T08:04:34.802Z,47.59
2018-07-21T08:07:03.174Z,46.67
2018-07-21T08:09:31.581Z,46.27
2018-07-21T08:11:59.958Z,45.78
2018-07-21T08:14:38.366Z,45.77
2018-07-21T08:17:09.545Z,44.31
2018-07-21T08:19:40.488Z,43.17
2018-07-21T08:22:09.112Z,41.69
2018-07-21T08:24:37.518Z,41.20
2018-07-21T08:27:06.518Z,40.60
2018-07-21T08:29:34.910Z,41.17
2018-07-21T08:32:03.277Z,40.88
2018-07-21T08:34:31.697Z,40.58
2018-07-21T08:37:00.062Z,40.12
2018-07-21T08:39:28.426Z,39.80
2018-07-21T08:41:56.814Z,39.50
2018-07-21T08:44:25.181Z,39.92
2018-07-21T08:46:53.581Z,39.62
2018-07-21T08:49:21.949Z,40.64
2018-07-21T08:51:50.341Z,39.50
2018-07-21T08:54:18.707Z,40.00
2018-07-21T08:56:47.098Z,39.30
2018-07-21T08:59:15.466Z,39.83
2018-07-21T09:01:43.867Z,40.47
2018-07-21T09:04:12.236Z,40.90
2018-07-21T09:06:40.630Z,39.62
2018-07-21T09:09:10.867Z,39.57
2018-07-21T09:11:39.472Z,38.79
2018-07-21T09:14:07.865Z,39.34
2018-07-21T09:16:36.434Z,38.25
2018-07-21T09:19:04.821Z,38.49
2018-07-21T09:21:33.332Z,38.44
2018-07-21T09:24:01.677Z,38.57
2018-07-21T09:26:30.067Z,37.67
2018-07-21T09:28:58.457Z,36.63
2018-07-21T09:31:26.851Z,36.31
2018-07-21T09:33:55.223Z,37.45
2018-07-21T09:36:23.621Z,37.79
2018-07-21T09:38:51.989Z,36.95
2018-07-21T09:41:20.377Z,37.42
2018-07-21T09:43:48.746Z,36.12
2018-07-21T09:46:17.138Z,36.77
2018-07-21T09:48:45.512Z,35.89
2018-07-21T09:51:13.910Z,36.31
2018-07-21T09:53:42.313Z,36.76
2018-07-21T09:56:10.702Z,36.61
2018-07-21T09:58:39.070Z,36.25
2018-07-21T10:01:07.491Z,35.69
2018-07-21T10:03:35.867Z,36.23
2018-07-21T10:06:04.535Z,37.21
2018-07-21T10:08:32.906Z,37.11
2018-07-21T10:11:02.077Z,36.50
2018-07-21T10:13:30.440Z,35.15
2018-07-21T10:15:58.839Z,35.95
2018-07-21T10:18:27.240Z,34.75
2018-07-21T10:20:55.633Z,35.63
2018-07-21T10:23:23.994Z,34.43
2018-07-21T10:25:57.766Z,35.72
2018-07-21T10:28:31.566Z,34.25
2018-07-21T10:30:59.961Z,35.40
2018-07-21T10:33:28.428Z,35.52
2018-07-21T10:35:56.736Z,34.58
2018-07-21T10:38:25.146Z,35.32
2018-07-21T10:40:53.522Z,34.88
2018-07-21T10:43:21.918Z,34.95
2018-07-21T10:45:50.288Z,34.51
2018-07-21T10:48:18.694Z,34.89
2018-07-21T10:50:47.139Z,34.88
2018-07-21T10:53:15.522Z,35.92
2018-07-21T10:55:43.889Z,34.36
2018-07-21T10:58:12.291Z,34.11
2018-07-21T11:00:40.670Z,34.74
2018-07-21T11:03:09.062Z,35.72
2018-07-21T11:05:37.429Z,34.71
2018-07-21T11:08:05.891Z,35.35
2018-07-21T11:10:34.250Z,34.84
2018-07-21T11:13:02.638Z,33.75
2018-07-21T11:15:31.044Z,33.80
2018-07-21T11:17:59.447Z,33.96
2018-07-21T11:20:27.819Z,33.70
2018-07-21T11:22:56.215Z,33.17
2018-07-21T11:25:24.586Z,33.97
2018-07-21T11:27:52.974Z,33.83
2018-07-21T11:30:21.347Z,34.18
2018-07-21T11:32:49.733Z,33.75
2018-07-21T11:35:18.201Z,33.84
2018-07-21T11:37:46.534Z,32.69
2018-07-21T11:40:14.898Z,33.98
2018-07-21T11:42:43.289Z,33.66
2018-07-21T11:45:11.663Z,33.50
2018-07-21T11:47:40.057Z,33.72
2018-07-21T11:50:08.430Z,34.21
2018-07-21T11:52:36.825Z,33.91
2018-07-21T11:55:05.417Z,33.35
2018-07-21T11:57:33.844Z,33.36
2018-07-21T12:00:02.210Z,34.40
2018-07-21T12:02:30.611Z,33.05
2018-07-21T12:04:58.982Z,32.77
2018-07-21T12:07:27.377Z,32.38
2018-07-21T12:09:55.742Z,31.74
2018-07-21T12:12:24.139Z,32.18
2018-07-21T12:14:52.502Z,32.17
2018-07-21T12:17:20.918Z,31.97
2018-07-21T12:19:49.282Z,32.42
2018-07-21T12:22:17.689Z,33.00
2018-07-21T12:24:46.069Z,32.98
2018-07-21T12:27:14.438Z,32.36
2018-07-21T12:29:42.927Z,32.43
2018-07-21T12:32:11.597Z,31.50
2018-07-21T12:34:39.985Z,32.24
2018-07-21T12:37:08.381Z,31.66
2018-07-21T12:39:36.777Z,31.17
2018-07-21T12:42:05.157Z,31.50
2018-07-21T12:44:33.566Z,31.03
2018-07-21T12:47:01.942Z,31.18
2018-07-21T12:49:30.342Z,30.44
2018-07-21T12:51:58.723Z,31.81
2018-07-21T12:54:27.119Z,31.94
2018-07-21T12:56:55.498Z,31.00
2018-07-21T12:59:23.894Z,31.99
2018-07-21T13:01:52.275Z,32.31
2018-07-21T13:04:20.670Z,32.76
2018-07-21T13:06:49.062Z,32.35
2018-07-21T13:09:17.457Z,31.40
2018-07-21T13:11:45.825Z,31.89
2018-07-21T13:14:14.217Z,31.37
2018-07-21T13:16:42.613Z,31.49
2018-07-21T13:19:11.024Z,32.82
2018-07-21T13:21:39.402Z,31.57
2018-07-21T13:24:07.854Z,31.70
2018-07-21T13:26:36.218Z,31.32
2018-07-21T13:29:04.619Z,31.00
2018-07-21T13:31:33.052Z,31.16
2018-07-21T13:34:01.427Z,30.63
2018-07-21T13:36:29.805Z,30.72
2018-07-21T13:38:58.258Z,30.43
2018-07-21T13:41:26.635Z,30.40
2018-07-21T13:43:55.059Z,29.78
2018-07-21T13:46:23.434Z,30.11
2018-07-21T13:48:51.829Z,30.52
2018-07-21T13:51:20.198Z,30.13
2018-07-21T13:53:48.670Z,30.89
2018-07-21T13:56:17.010Z,29.99
2018-07-21T13:58:45.406Z,30.18
2018-07-21T14:01:13.770Z,29.88
2018-07-21T14:03:42.199Z,29.66
2018-07-21T14:06:10.574Z,29.75
2018-07-21T14:08:38.970Z,30.83
2018-07-21T14:11:07.355Z,29.82
2018-07-21T14:13:35.762Z,30.87
2018-07-21T14:16:04.126Z,29.81
2018-07-21T14:18:32.542Z,29.65
2018-07-21T14:21:00.909Z,30.25
2018-07-21T14:23:29.326Z,30.28
2018-07-21T14:25:57.710Z,30.00
2018-07-21T14:28:26.085Z,30.74
2018-07-21T14:30:54.482Z,30.73
2018-07-21T14:33:22.864Z,30.87
2018-07-21T14:35:51.348Z,31.06
2018-07-21T14:38:19.838Z,29.66
2018-07-21T14:40:48.230Z,29.92
2018-07-21T14:43:16.598Z,29.74
2018-07-21T14:45:44.990Z,30.09
2018-07-21T14:48:13.358Z,29.74
2018-07-21T14:50:41.862Z,29.90
2018-07-21T14:53:10.233Z,31.05
2018-07-21T14:55:38.654Z,29.81
2018-07-21T14:58:07.047Z,29.28
2018-07-21T15:00:35.462Z,30.18
2018-07-21T15:03:03.834Z,30.27
2018-07-21T15:05:32.217Z,31.05
2018-07-21T15:08:00.595Z,30.21
2018-07-21T15:10:28.982Z,30.16
2018-07-21T15:12:57.354Z,30.43
2018-07-21T15:15:25.763Z,29.73
2018-07-21T15:17:54.180Z,31.03
2018-07-21T15:20:22.594Z,30.54
2018-07-21T15:22:50.962Z,30.57
2018-07-21T15:25:19.350Z,29.78
2018-07-21T15:27:47.715Z,29.64
2018-07-21T15:30:16.144Z,30.80
2018-07-21T15:32:44.513Z,30.94
2018-07-21T15:35:12.926Z,30.81
2018-07-21T15:37:41.315Z,29.61
2018-07-21T15:40:09.703Z,30.79
2018-07-21T15:42:38.074Z,29.74
2018-07-21T15:45:06.498Z,30.51
2018-07-21T15:47:34.862Z,29.63
2018-07-21T15:50:03.313Z,31.17
2018-07-21T15:52:31.682Z,31.44
2018-07-21T15:55:00.081Z,31.56
2018-07-21T15:57:28.450Z,30.96
2018-07-21T15:59:56.834Z,30.91
2018-07-21T16:02:25.232Z,31.07
2018-07-21T16:04:53.629Z,30.41
2018-07-21T16:07:22.005Z,31.28
2018-07-21T16:09:50.400Z,30.42
2018-07-21T16:12:18.778Z,31.18
2018-07-21T16:14:47.230Z,30.63
2018-07-21T16:17:15.632Z,30.50
2018-07-21T16:19:44.031Z,30.20
2018-07-21T16:22:12.399Z,30.97
2018-07-21T16:24:40.799Z,31.24
2018-07-21T16:27:09.169Z,31.02
2018-07-21T16:29:37.541Z,29.52
2018-07-21T16:32:06.017Z,30.01
2018-07-21T16:34:34.396Z,29.42
2018-07-21T16:37:02.808Z,30.44
2018-07-21T16:39:31.182Z,29.63
2018-07-21T16:41:59.573Z,29.73
2018-07-21T16:44:27.950Z,29.58
2018-07-21T16:46:56.342Z,29.47
2018-07-21T16:49:24.712Z,29.23
2018-07-21T16:51:53.123Z,28.21
2018-07-21T16:54:21.491Z,28.72
2018-07-21T16:56:49.930Z,29.17
2018-07-21T16:59:18.297Z,29.47
2018-07-21T17:01:46.702Z,29.33
2018-07-21T17:04:15.083Z,28.17
2018-07-21T17:06:43.477Z,28.61
2018-07-21T17:09:11.854Z,28.48
2018-07-21T17:11:40.250Z,28.10
2018-07-21T17:14:09.250Z,27.84
2018-07-21T17:16:37.715Z,28.84
2018-07-21T17:19:06.370Z,28.12
2018-07-21T17:21:34.755Z,28.97
2018-07-21T17:24:03.138Z,28.49
2018-07-21T17:26:31.530Z,28.96
2018-07-21T17:28:59.897Z,29.52
2018-07-21T17:31:28.292Z,31.09
2018-07-21T17:33:56.672Z,30.85
2018-07-21T17:36:25.078Z,31.98
2018-07-21T17:38:53.450Z,32.04
2018-07-21T17:41:21.872Z,32.29
2018-07-21T17:43:50.241Z,32.62
2018-07-21T17:46:18.670Z,33.46
2018-07-21T17:48:47.046Z,32.87
2018-07-21T17:51:15.510Z,34.11
2018-07-21T17:53:43.878Z,33.47
2018-07-21T17:56:12.278Z,34.45
2018-07-21T17:58:40.646Z,34.46
2018-07-21T18:01:09.042Z,35.00
2018-07-21T18:03:37.478Z,35.48
2018-07-21T18:06:05.874Z,36.41
2018-07-21T18:08:34.254Z,37.81
2018-07-21T18:11:02.645Z,38.25
2018-07-21T18:13:31.055Z,38.31
2018-07-21T18:15:59.695Z,38.83
2018-07-21T18:18:28.095Z,38.85
2018-07-21T18:20:56.502Z,38.57
2018-07-21T18:23:24.878Z,38.91
2018-07-21T18:25:53.241Z,39.43
2018-07-21T18:28:21.643Z,39.42
2018-07-21T18:30:50.019Z,39.55
2018-07-21T18:33:18.415Z,39.63
2018-07-21T18:35:46.789Z,40.77
2018-07-21T18:38:15.186Z,40.50
2018-07-21T18:40:43.558Z,40.90
2018-07-21T18:43:11.950Z,41.63
2018-07-21T18:45:40.338Z,41.95
2018-07-21T18:48:08.762Z,41.61
2018-07-21T18:50:37.134Z,41.77
2018-07-21T18:53:05.718Z,42.29
2018-07-21T18:55:34.112Z,42.99
2018-07-21T18:58:02.502Z,43.07
2018-07-21T19:00:30.879Z,43.21
2018-07-21T19:02:59.272Z,43.43
2018-07-21T19:05:27.662Z,44.14
2018-07-21T19:07:56.050Z,43.72
2018-07-21T19:10:24.413Z,43.89
2018-07-21T19:12:52.805Z,44.13
2018-07-21T19:15:26.530Z,45.04
2018-07-21T19:17:54.958Z,44.59
2018-07-21T19:20:28.710Z,45.12
2018-07-21T19:22:57.106Z,45.12
2018-07-21T19:25:30.721Z,46.13
2018-07-21T19:27:59.102Z,45.40
2018-07-21T19:30:27.503Z,46.25
2018-07-21T19:33:00.929Z,46.05
2018-07-21T19:35:30.721Z,46.86
2018-07-21T19:37:59.166Z,46.21
2018-07-21T19:40:27.556Z,47.36
2018-07-21T19:42:55.954Z,47.66
2018-07-21T19:45:24.326Z,47.70
2018-07-21T19:47:52.736Z,48.36
2018-07-21T19:50:21.113Z,48.71
2018-07-21T19:52:49.569Z,48.83
2018-07-21T19:55:17.901Z,48.19
2018-07-21T19:57:46.302Z,48.89
2018-07-21T20:00:14.725Z,49.60
2018-07-21T20:02:43.134Z,49.80
2018-07-21T20:05:11.510Z,49.92
2018-07-21T20:07:39.914Z,49.89
2018-07-21T20:10:08.294Z,49.75
2018-07-21T20:12:36.742Z,49.56
2018-07-21T20:15:05.231Z,49.89
2018-07-21T20:17:33.704Z,50.98
2018-07-21T20:20:02.082Z,50.21
2018-07-21T20:22:30.462Z,50.62
2018-07-21T20:24:58.870Z,50.72
2018-07-21T20:27:27.249Z,51.00
2018-07-21T20:29:55.679Z,51.21
2018-07-21T20:32:24.050Z,51.17
2018-07-21T20:34:52.446Z,51.71
2018-07-21T20:37:20.956Z,51.36
2018-07-21T20:39:49.359Z,51.52
2018-07-21T20:42:17.772Z,51.84
2018-07-21T20:44:46.177Z,51.89
2018-07-21T20:47:14.548Z,52.02
2018-07-21T20:49:42.953Z,52.99
2018-07-21T20:52:11.358Z,52.88
2018-07-21T20:54:39.766Z,53.31
2018-07-21T20:57:08.200Z,53.11
2018-07-21T20:59:36.621Z,53.49
2018-07-21T21:02:05.006Z,53.89
2018-07-21T21:04:33.408Z,53.05
2018-07-21T21:07:01.782Z,53.21
2018-07-21T21:09:30.192Z,53.65
2018-07-21T21:11:58.565Z,53.97
2018-07-21T21:14:26.966Z,54.59
2018-07-21T21:16:55.372Z,54.58
2018-07-21T21:19:23.770Z,55.03
2018-07-21T21:21:52.157Z,54.04
2018-07-21T21:24:20.549Z,54.23
2018-07-21T21:26:48.925Z,55.55
2018-07-21T21:29:17.318Z,55.55
2018-07-21T21:31:45.691Z,55.94
2018-07-21T21:34:14.129Z,55.15
2018-07-21T21:36:42.498Z,55.40
2018-07-21T21:39:12.474Z,56.36
2018-07-21T21:41:41.029Z,55.97
2018-07-21T21:44:09.450Z,56.51
2018-07-21T21:46:37.817Z,56.11
2018-07-21T21:49:06.254Z,57.06
2018-07-21T21:51:34.645Z,56.84
2018-07-21T21:54:03.038Z,57.47
2018-07-21T21:56:31.813Z,57.70
2018-07-21T21:59:00.206Z,57.20
2018-07-21T22:01:29.294Z,57.26
2018-07-21T22:03:57.740Z,58.03
2018-07-21T22:06:26.118Z,57.35
2018-07-21T22:08:54.514Z,57.96
2018-07-21T22:11:22.906Z,57.49
2018-07-21T22:13:51.316Z,57.80
2018-07-21T22:16:19.694Z,58.86
2018-07-21T22:18:48.188Z,59.31
2018-07-21T22:21:16.553Z,59.81
2018-07-21T22:23:44.933Z,59.55
2018-07-21T22:26:13.342Z,59.75
2018-07-21T22:28:41.722Z,60.97
2018-07-21T22:31:10.125Z,60.02
2018-07-21T22:33:38.500Z,60.67
2018-07-21T22:36:06.901Z,61.02
2018-07-21T22:38:35.280Z,60.22
2018-07-21T22:41:03.685Z,60.17
2018-07-21T22:43:32.092Z,60.89
2018-07-21T22:46:00.489Z,60.16
2018-07-21T22:48:28.870Z,60.29
2018-07-21T22:50:57.822Z,60.83
2018-07-21T22:53:26.206Z,60.98
2018-07-21T22:55:54.610Z,60.73
2018-07-21T22:58:22.981Z,61.67
2018-07-21T23:00:51.633Z,61.48
2018-07-21T23:03:20.010Z,61.00
2018-07-21T23:05:48.405Z,62.12
2018-07-21T23:08:16.781Z,61.48
2018-07-21T23:10:45.182Z,62.50
2018-07-21T23:13:13.568Z,61.93
2018-07-21T23:15:41.968Z,62.26
2018-07-21T23:18:10.518Z,63.06
2018-07-21T23:20:38.914Z,62.65
2018-07-21T23:23:07.286Z,62.60
2018-07-21T23:25:35.688Z,62.60
2018-07-21T23:28:04.062Z,62.41
2018-07-21T23:30:32.458Z,63.30
2018-07-21T23:33:00.854Z,62.73
2018-07-21T23:35:29.250Z,63.33
2018-07-21T23:37:57.630Z,62.73
2018-07-21T23:40:26.027Z,63.57
2018-07-21T23:42:54.414Z,63.06
2018-07-21T23:45:22.823Z,63.00
2018-07-21T23:47:51.193Z,63.07
2018-07-21T23:50:19.594Z,63.38
2018-07-21T23:52:47.970Z,64.34
2018-07-21T23:55:16.378Z,64.14
2018-07-21T23:57:44.760Z,64.22
